createdAt,value
2023-04-28T00:01:13.993Z,10.30
2023-04-28T00:03:40.817Z,10.30
2023-04-28T00:06:07.747Z,10.30
2023-04-28T00:08:35.755Z,10.30
2023-04-28T00:11:02.481Z,10.30
2023-04-28T00:13:29.270Z,10.20
2023-04-28T00:15:56.012Z,10.20
2023-04-28T00:18:22.863Z,10.10
2023-04-28T00:20:49.623Z,10.10
2023-04-28T00:23:16.312Z,10.10
2023-04-28T00:25:44.329Z,10.10
2023-04-28T00:28:11.677Z,10.20
2023-04-28T00:30:40.768Z,10.20
2023-04-28T00:33:07.517Z,10.00
2023-04-28T00:35:34.319Z,10.00
2023-04-28T00:38:01.030Z,9.90
2023-04-28T00:40:33.280Z,10.00
2023-04-28T00:43:01.325Z,10.10
2023-04-28T00:45:28.143Z,10.10
2023-04-28T00:47:55.359Z,10.20
2023-04-28T00:50:22.248Z,10.20
2023-04-28T00:52:49.148Z,10.20
2023-04-28T00:55:16.928Z,10.20
2023-04-28T00:57:43.788Z,10.10
2023-04-28T01:00:12.854Z,10.10
2023-04-28T01:02:39.736Z,10.10
2023-04-28T01:05:08.599Z,10.10
2023-04-28T01:07:35.366Z,10.10
2023-04-28T01:10:03.186Z,10.10
2023-04-28T01:12:29.924Z,10.00
2023-04-28T01:14:56.771Z,10.10
2023-04-28T01:17:25.079Z,10.00
2023-04-28T01:19:51.818Z,10.00
2023-04-28T01:22:18.643Z,10.10
2023-04-28T01:24:46.671Z,10.10
2023-04-28T01:27:13.401Z,10.10
2023-04-28T01:29:40.107Z,10.00
2023-04-28T01:32:06.848Z,10.00
2023-04-28T01:34:33.560Z,10.00
2023-04-28T01:37:00.284Z,9.90
2023-04-28T01:39:27.048Z,10.00
2023-04-28T01:41:55.106Z,9.90
2023-04-28T01:44:21.806Z,9.90
2023-04-28T01:46:48.504Z,10.00
2023-04-28T01:49:15.262Z,10.00
2023-04-28T01:51:41.992Z,9.90
2023-04-28T01:54:08.735Z,9.90
2023-04-28T01:56:35.433Z,9.90
2023-04-28T01:59:03.486Z,9.90
2023-04-28T02:01:30.258Z,10.00
2023-04-28T02:03:57.261Z,10.10
2023-04-28T02:06:24.190Z,10.10
2023-04-28T02:08:50.895Z,10.00
2023-04-28T02:11:17.642Z,10.10
2023-04-28T02:13:44.355Z,10.10
2023-04-28T02:16:12.489Z,10.10
2023-04-28T02:18:39.235Z,10.10
2023-04-28T02:21:09.314Z,10.10
2023-04-28T02:23:36.054Z,10.10
2023-04-28T02:26:03.029Z,10.00
2023-04-28T02:28:29.773Z,10.00
2023-04-28T02:31:04.160Z,10.00
2023-04-28T02:33:32.254Z,10.00
2023-04-28T02:35:59.364Z,10.00
2023-04-28T02:38:26.217Z,10.00
2023-04-28T02:40:58.296Z,10.00
2023-04-28T02:43:25.005Z,10.00
2023-04-28T02:45:51.946Z,10.00
2023-04-28T02:48:18.808Z,10.00
2023-04-28T02:50:46.876Z,10.00
2023-04-28T02:53:13.730Z,10.00
2023-04-28T02:55:40.431Z,10.00
2023-04-28T02:58:07.316Z,10.00
2023-04-28T03:00:34.241Z,9.90
2023-04-28T03:03:01.147Z,9.90
2023-04-28T03:05:28.072Z,10.00
2023-04-28T03:07:56.188Z,10.00
2023-04-28T03:10:22.889Z,10.00
2023-04-28T03:12:49.662Z,9.90
2023-04-28T03:15:16.516Z,9.90
2023-04-28T03:17:43.382Z,10.00
2023-04-28T03:20:11.257Z,10.00
2023-04-28T03:22:37.985Z,10.00
2023-04-28T03:25:06.613Z,9.90
2023-04-28T03:27:33.324Z,9.90
2023-04-28T03:30:00.056Z,9.90
2023-04-28T03:32:26.813Z,9.90
2023-04-28T03:34:53.552Z,10.00
2023-04-28T03:37:20.273Z,10.00
2023-04-28T03:39:47.025Z,9.90
2023-04-28T03:42:15.056Z,9.90
2023-04-28T03:44:41.777Z,10.00
2023-04-28T03:47:08.509Z,10.00
2023-04-28T03:49:35.293Z,10.00
2023-04-28T03:52:02.016Z,10.10
2023-04-28T03:54:28.737Z,10.10
2023-04-28T03:56:55.483Z,10.10
2023-04-28T03:59:23.607Z,10.00
2023-04-28T04:01:50.351Z,10.10
2023-04-28T04:04:17.964Z,10.00
2023-04-28T04:06:45.182Z,10.10
2023-04-28T04:09:11.896Z,10.00
2023-04-28T04:11:38.647Z,9.90
2023-04-28T04:14:05.354Z,9.90
2023-04-28T04:16:33.461Z,9.90
2023-04-28T04:19:00.177Z,10.00
2023-04-28T04:21:26.869Z,10.00
2023-04-28T04:23:53.701Z,10.00
2023-04-28T04:26:20.817Z,10.00
2023-04-28T04:28:47.540Z,9.90
2023-04-28T04:31:14.302Z,10.00
2023-04-28T04:33:42.421Z,9.90
2023-04-28T04:36:09.374Z,10.00
2023-04-28T04:38:36.140Z,10.10
2023-04-28T04:41:02.908Z,10.10
2023-04-28T04:43:29.657Z,10.10
2023-04-28T04:45:56.586Z,10.00
2023-04-28T04:48:23.378Z,10.00
2023-04-28T04:50:51.444Z,10.10
2023-04-28T04:53:18.378Z,10.00
2023-04-28T04:55:45.137Z,10.00
2023-04-28T04:58:11.905Z,9.90
2023-04-28T05:00:38.684Z,10.00
2023-04-28T05:03:05.639Z,10.10
2023-04-28T05:05:32.689Z,10.10
2023-04-28T05:08:00.884Z,10.10
2023-04-28T05:10:27.599Z,10.10
2023-04-28T05:12:54.371Z,10.10
2023-04-28T05:15:21.096Z,10.10
2023-04-28T05:17:47.973Z,10.10
2023-04-28T05:20:14.810Z,10.20
2023-04-28T05:22:41.564Z,10.10
2023-04-28T05:25:10.116Z,10.10
2023-04-28T05:27:36.846Z,10.10
2023-04-28T05:30:04.160Z,10.10
2023-04-28T05:32:30.986Z,10.10
2023-04-28T05:34:57.762Z,10.10
2023-04-28T05:37:24.576Z,10.10
2023-04-28T05:39:51.291Z,10.10
2023-04-28T05:42:19.361Z,10.10
2023-04-28T05:44:46.069Z,10.10
2023-04-28T05:47:12.805Z,10.10
2023-04-28T05:49:39.498Z,10.20
2023-04-28T05:52:06.526Z,10.20
2023-04-28T05:54:33.253Z,10.20
2023-04-28T05:57:01.483Z,10.10
2023-04-28T05:59:29.750Z,10.10
2023-04-28T06:01:56.479Z,10.20
2023-04-28T06:04:23.845Z,10.10
2023-04-28T06:06:50.941Z,10.10
2023-04-28T06:09:17.785Z,10.20
2023-04-28T06:11:44.777Z,10.30
2023-04-28T06:14:11.500Z,10.30
2023-04-28T06:16:39.578Z,10.30
2023-04-28T06:19:06.285Z,10.30
2023-04-28T06:21:33.044Z,10.30
2023-04-28T06:23:59.793Z,10.30
2023-04-28T06:26:26.628Z,10.30
2023-04-28T06:28:53.371Z,10.20
2023-04-28T06:31:20.121Z,10.20
2023-04-28T06:33:48.292Z,10.20
2023-04-28T06:36:15.064Z,10.20
2023-04-28T06:38:41.794Z,10.30
2023-04-28T06:41:08.485Z,10.30
2023-04-28T06:43:35.330Z,10.30
2023-04-28T06:46:02.205Z,10.30
2023-04-28T06:48:29.004Z,10.20
2023-04-28T06:50:57.117Z,10.20
2023-04-28T06:53:23.947Z,10.20
2023-04-28T06:55:50.768Z,10.20
2023-04-28T06:58:17.539Z,10.20
2023-04-28T07:00:44.363Z,10.30
2023-04-28T07:03:11.623Z,10.20
2023-04-28T07:05:38.417Z,10.20
2023-04-28T07:08:06.704Z,10.20
2023-04-28T07:10:33.426Z,10.30
2023-04-28T07:13:00.138Z,10.30
2023-04-28T07:15:26.983Z,10.30
2023-04-28T07:17:53.835Z,10.30
2023-04-28T07:20:20.678Z,10.30
2023-04-28T07:22:47.397Z,10.20
2023-04-28T07:25:15.572Z,10.30
2023-04-28T07:27:42.399Z,10.30
2023-04-28T07:30:25.670Z,10.30
2023-04-28T07:32:53.833Z,10.30
2023-04-28T07:35:20.678Z,10.30
2023-04-28T07:37:47.438Z,10.30
2023-04-28T07:40:16.355Z,10.30
2023-04-28T07:42:43.260Z,10.40
2023-04-28T07:45:11.075Z,10.40
2023-04-28T07:47:38.361Z,10.40
2023-04-28T07:50:06.016Z,10.40
2023-04-28T07:52:33.103Z,10.40
2023-04-28T07:54:59.885Z,10.30
2023-04-28T07:57:27.976Z,10.40
2023-04-28T07:59:54.747Z,10.40
2023-04-28T08:02:21.632Z,10.40
2023-04-28T08:04:48.581Z,10.50
2023-04-28T08:07:15.452Z,10.50
2023-04-28T08:09:42.204Z,10.50
2023-04-28T08:12:08.917Z,10.50
2023-04-28T08:14:36.982Z,10.50
2023-04-28T08:17:03.727Z,10.50
2023-04-28T08:19:30.525Z,10.50
2023-04-28T08:21:57.262Z,10.60
2023-04-28T08:24:23.965Z,10.60
2023-04-28T08:26:50.737Z,10.60
2023-04-28T08:29:17.489Z,10.60
2023-04-28T08:31:45.640Z,10.60
2023-04-28T08:34:13.932Z,10.70
2023-04-28T08:36:41.994Z,10.70
2023-04-28T08:39:08.705Z,10.70
2023-04-28T08:41:38.646Z,10.60
2023-04-28T08:44:08.546Z,10.70
2023-04-28T08:46:35.960Z,10.70
2023-04-28T08:49:05.694Z,10.70
2023-04-28T08:51:34.408Z,10.70
2023-04-28T08:54:29.848Z,10.70
2023-04-28T08:56:50.064Z,10.70
2023-04-28T08:59:17.275Z,10.70
2023-04-28T09:01:44.009Z,10.70
2023-04-28T09:04:14.397Z,10.70
2023-04-28T09:06:41.565Z,10.70
2023-04-28T09:09:21.754Z,10.70
2023-04-28T09:11:55.895Z,10.70
2023-04-28T09:14:22.881Z,10.70
2023-04-28T09:16:50.074Z,10.70
2023-04-28T09:19:18.437Z,10.70
2023-04-28T09:21:49.912Z,10.80
2023-04-28T09:24:35.138Z,10.80
2023-04-28T09:27:03.462Z,10.80
2023-04-28T09:29:30.647Z,10.80
2023-04-28T09:32:13.412Z,10.80
2023-04-28T09:34:45.616Z,10.80
2023-04-28T09:37:16.865Z,10.80
2023-04-28T09:39:44.899Z,10.80
2023-04-28T09:42:30.433Z,10.80
2023-04-28T09:44:57.636Z,10.80
2023-04-28T09:47:24.424Z,10.80
2023-04-28T09:49:55.547Z,10.80
2023-04-28T09:52:22.376Z,10.80
2023-04-28T09:54:50.807Z,10.90
2023-04-28T09:57:18.461Z,10.90
2023-04-28T09:59:48.410Z,10.90
2023-04-28T10:02:41.056Z,10.90
2023-04-28T10:05:06.654Z,10.90
2023-04-28T10:07:33.930Z,10.90
2023-04-28T10:10:01.197Z,10.90
2023-04-28T10:12:28.478Z,10.90
2023-04-28T10:14:55.206Z,10.90
2023-04-28T10:17:22.581Z,10.90
2023-04-28T10:19:52.480Z,10.90
2023-04-28T10:22:51.347Z,10.90
2023-04-28T10:25:26.598Z,10.90
2023-04-28T10:27:54.145Z,10.90
2023-04-28T10:30:28.103Z,10.90
2023-04-28T10:33:23.600Z,10.90
2023-04-28T10:35:50.350Z,10.90
2023-04-28T10:38:19.660Z,10.90
2023-04-28T10:40:46.978Z,10.90
2023-04-28T10:43:14.705Z,10.90
2023-04-28T10:46:04.865Z,10.90
2023-04-28T10:48:57.735Z,10.90
2023-04-28T10:51:34.167Z,11.00
2023-04-28T10:54:18.862Z,11.00
2023-04-28T10:57:20.109Z,11.00
2023-04-28T10:59:47.736Z,11.00
2023-04-28T11:02:44.786Z,11.00
2023-04-28T11:05:16.990Z,11.00
2023-04-28T11:08:28.831Z,11.00
2023-04-28T11:11:17.624Z,11.00
2023-04-28T11:13:45.330Z,11.00
2023-04-28T11:16:14.774Z,11.00
2023-04-28T11:18:59.355Z,11.10
2023-04-28T11:21:26.834Z,11.10
2023-04-28T11:23:53.560Z,11.10
2023-04-28T11:26:21.878Z,11.10
2023-04-28T11:28:50.241Z,11.10
2023-04-28T11:31:18.353Z,11.10
2023-04-28T11:33:52.837Z,11.10
2023-04-28T11:36:27.137Z,11.10
2023-04-28T11:38:54.263Z,11.20
2023-04-28T11:41:22.870Z,11.20
2023-04-28T11:43:49.776Z,11.20
2023-04-28T11:46:18.049Z,11.20
2023-04-28T11:48:44.872Z,11.30
2023-04-28T11:51:30.510Z,11.30
2023-04-28T11:53:57.239Z,11.30
2023-04-28T11:56:25.409Z,11.30
2023-04-28T11:59:09.280Z,11.30
2023-04-28T12:01:44.987Z,11.40
2023-04-28T12:04:12.055Z,11.40
2023-04-28T12:06:39.074Z,11.40
2023-04-28T12:09:15.796Z,11.40
2023-04-28T12:11:54.550Z,11.40
2023-04-28T12:14:21.430Z,11.40
2023-04-28T12:16:48.187Z,11.40
2023-04-28T12:19:15.103Z,11.50
2023-04-28T12:21:42.563Z,11.50
2023-04-28T12:24:20.006Z,11.50
2023-04-28T12:26:47.363Z,11.50
2023-04-28T12:29:37.448Z,11.50
2023-04-28T12:32:05.054Z,11.50
2023-04-28T12:34:31.753Z,11.50
2023-04-28T12:36:58.447Z,11.50
2023-04-28T12:39:25.279Z,11.50
2023-04-28T12:41:52.006Z,11.50
2023-04-28T12:44:18.743Z,11.50
2023-04-28T12:46:46.973Z,11.50
2023-04-28T12:49:13.772Z,11.50
2023-04-28T12:51:40.551Z,11.60
2023-04-28T12:54:07.280Z,11.50
2023-04-28T12:56:34.141Z,11.60
2023-04-28T12:59:01.025Z,11.60
2023-04-28T13:01:27.772Z,11.60
2023-04-28T13:03:56.034Z,11.60
2023-04-28T13:06:22.862Z,11.60
2023-04-28T13:08:49.638Z,11.60
2023-04-28T13:11:22.770Z,11.60
2023-04-28T13:13:50.073Z,11.60
2023-04-28T13:16:16.851Z,11.60
2023-04-28T13:18:43.582Z,11.60
2023-04-28T13:21:11.676Z,11.60
2023-04-28T13:23:38.385Z,11.60
2023-04-28T13:26:05.208Z,11.70
2023-04-28T13:28:31.987Z,11.70
2023-04-28T13:30:58.720Z,11.60
2023-04-28T13:33:25.419Z,11.70
2023-04-28T13:35:52.166Z,11.70
2023-04-28T13:38:20.232Z,11.70
2023-04-28T13:40:46.951Z,11.70
2023-04-28T13:43:13.678Z,11.70
2023-04-28T13:45:40.535Z,11.70
2023-04-28T13:48:07.452Z,11.70
2023-04-28T13:50:34.184Z,11.70
2023-04-28T13:53:00.953Z,11.70
2023-04-28T13:55:29.019Z,11.70
2023-04-28T13:57:56.755Z,11.70
2023-04-28T14:00:23.502Z,11.70
2023-04-28T14:02:50.398Z,11.70
2023-04-28T14:05:17.308Z,11.70
2023-04-28T14:07:44.333Z,11.70
2023-04-28T14:10:11.263Z,11.70
2023-04-28T14:12:39.390Z,11.70
2023-04-28T14:15:07.198Z,11.70
2023-04-28T14:17:33.978Z,11.70
2023-04-28T14:20:00.878Z,11.70
2023-04-28T14:22:27.628Z,11.70
2023-04-28T14:24:54.362Z,11.70
2023-04-28T14:27:21.154Z,11.80
2023-04-28T14:29:49.226Z,11.80
2023-04-28T14:32:16.618Z,11.80
2023-04-28T14:34:43.446Z,11.80
2023-04-28T14:37:10.227Z,11.80
2023-04-28T14:39:37.526Z,11.80
2023-04-28T14:42:04.325Z,11.80
2023-04-28T14:44:31.053Z,11.80
2023-04-28T14:46:59.202Z,11.80
2023-04-28T14:49:25.931Z,11.80
2023-04-28T14:51:53.053Z,11.80
2023-04-28T14:54:20.022Z,11.80
2023-04-28T14:56:48.317Z,11.80
2023-04-28T14:59:15.031Z,11.80
2023-04-28T15:01:42.081Z,11.80
2023-04-28T15:04:10.346Z,11.80
2023-04-28T15:06:37.136Z,11.80
2023-04-28T15:09:03.953Z,11.80
2023-04-28T15:11:32.638Z,11.90
2023-04-28T15:13:59.352Z,11.80
2023-04-28T15:16:26.217Z,11.80
2023-04-28T15:18:53.043Z,11.80
2023-04-28T15:21:21.236Z,11.90
2023-04-28T15:23:47.922Z,11.90
2023-04-28T15:26:14.675Z,11.80
2023-04-28T15:28:41.451Z,11.90
2023-04-28T15:31:08.227Z,11.80
2023-04-28T15:33:34.987Z,11.90
2023-04-28T15:36:01.777Z,11.90
2023-04-28T15:38:30.005Z,11.90
2023-04-28T15:40:56.728Z,11.80
2023-04-28T15:43:23.533Z,11.90
2023-04-28T15:45:50.345Z,11.90
2023-04-28T15:48:17.277Z,11.90
2023-04-28T15:50:44.015Z,11.90
2023-04-28T15:53:10.721Z,11.90
2023-04-28T15:55:38.812Z,11.90
2023-04-28T15:58:05.546Z,11.90
2023-04-28T16:00:32.277Z,11.90
2023-04-28T16:02:59.114Z,11.90
2023-04-28T16:05:25.927Z,11.90
2023-04-28T16:07:52.778Z,11.90
2023-04-28T16:10:19.631Z,11.90
2023-04-28T16:12:47.739Z,11.90
2023-04-28T16:15:14.731Z,12.00
2023-04-28T16:17:41.725Z,12.00
2023-04-28T16:20:10.204Z,12.00
2023-04-28T16:22:39.889Z,11.90
2023-04-28T16:25:07.235Z,11.90
2023-04-28T16:27:34.987Z,11.90
2023-04-28T16:30:03.803Z,11.90
2023-04-28T16:32:30.574Z,11.90
2023-04-28T16:34:57.610Z,11.90
2023-04-28T16:37:24.340Z,12.00
2023-04-28T16:39:51.355Z,11.90
2023-04-28T16:42:18.230Z,12.00
2023-04-28T16:44:44.927Z,12.00
2023-04-28T16:47:13.077Z,12.00
2023-04-28T16:49:39.826Z,12.00
2023-04-28T16:52:06.622Z,12.00
2023-04-28T16:54:33.597Z,12.00
2023-04-28T16:57:01.553Z,12.00
2023-04-28T16:59:28.532Z,12.00
2023-04-28T17:01:55.508Z,12.00
2023-04-28T17:04:24.097Z,12.00
2023-04-28T17:06:51.295Z,12.00
2023-04-28T17:09:18.568Z,12.00
2023-04-28T17:11:45.389Z,12.00
2023-04-28T17:14:12.096Z,12.00
2023-04-28T17:16:40.136Z,12.00
2023-04-28T17:19:08.223Z,12.00
2023-04-28T17:21:36.508Z,12.00
2023-04-28T17:24:03.691Z,12.00
2023-04-28T17:26:31.162Z,12.00
2023-04-28T17:28:58.806Z,12.00
2023-04-28T17:31:25.885Z,12.00
2023-04-28T17:33:54.234Z,12.00
2023-04-28T17:36:21.713Z,12.00
2023-04-28T17:38:49.779Z,12.00
2023-04-28T17:41:16.731Z,12.00
2023-04-28T17:43:43.526Z,12.00
2023-04-28T17:46:10.254Z,12.00
2023-04-28T17:48:37.012Z,12.10
2023-04-28T17:51:03.758Z,12.00
2023-04-28T17:53:30.472Z,12.00
2023-04-28T17:56:00.537Z,12.00
2023-04-28T17:58:27.281Z,12.10
2023-04-28T18:00:59.870Z,12.10
2023-04-28T18:03:26.751Z,12.10
2023-04-28T18:05:53.566Z,12.10
2023-04-28T18:08:20.291Z,12.10
2023-04-28T18:10:47.029Z,12.00
2023-04-28T18:13:15.112Z,12.00
2023-04-28T18:15:41.840Z,12.00
2023-04-28T18:18:08.530Z,12.00
2023-04-28T18:20:35.263Z,12.00
2023-04-28T18:23:01.968Z,12.00
2023-04-28T18:25:29.402Z,12.00
2023-04-28T18:27:56.181Z,12.10
2023-04-28T18:30:24.366Z,12.10
2023-04-28T18:32:51.149Z,12.00
2023-04-28T18:35:18.439Z,12.00
2023-04-28T18:37:46.621Z,12.00
2023-04-28T18:40:14.150Z,11.90
2023-04-28T18:42:41.507Z,12.00
2023-04-28T18:47:43.859Z,12.00
2023-04-28T18:50:11.604Z,12.00
2023-04-28T18:52:38.879Z,12.00
2023-04-28T18:55:06.686Z,12.00
2023-04-28T18:57:34.032Z,12.00
2023-04-28T19:00:01.115Z,12.00
2023-04-28T19:02:28.468Z,12.00
2023-04-28T19:04:57.949Z,12.00
2023-04-28T19:07:25.168Z,12.00
2023-04-28T19:09:52.524Z,12.00
2023-04-28T19:12:19.282Z,12.00
2023-04-28T19:14:45.997Z,12.00
2023-04-28T19:17:12.849Z,12.00
2023-04-28T19:19:39.734Z,11.90
2023-04-28T19:22:28.517Z,12.00
2023-04-28T19:24:55.203Z,11.90
2023-04-28T19:27:21.970Z,11.90
2023-04-28T19:29:49.012Z,11.90
2023-04-28T19:32:15.913Z,11.90
2023-04-28T19:34:42.613Z,12.00
2023-04-28T19:37:10.720Z,12.00
2023-04-28T19:39:37.450Z,12.00
2023-04-28T19:42:04.986Z,12.00
2023-04-28T19:44:31.750Z,12.00
2023-04-28T19:46:58.475Z,12.00
2023-04-28T19:49:25.162Z,12.00
2023-04-28T19:51:51.886Z,12.00
2023-04-28T19:54:19.962Z,12.00
2023-04-28T19:56:46.658Z,12.00
2023-04-28T19:59:13.429Z,12.00
2023-04-28T20:01:40.162Z,12.00
2023-04-28T20:04:07.073Z,12.00
2023-04-28T20:06:34.030Z,12.00
2023-04-28T20:09:01.883Z,12.00
2023-04-28T20:11:29.942Z,11.90
2023-04-28T20:13:56.666Z,11.90
2023-04-28T20:16:24.416Z,11.90
2023-04-28T20:18:51.243Z,11.90
2023-04-28T20:21:18.210Z,11.90
2023-04-28T20:23:44.982Z,11.90
2023-04-28T20:26:12.810Z,11.90
2023-04-28T20:28:40.907Z,11.90
2023-04-28T20:31:08.014Z,11.80
2023-04-28T20:33:34.751Z,11.80
2023-04-28T20:36:01.525Z,11.80
2023-04-28T20:38:29.124Z,11.80
2023-04-28T20:40:55.856Z,11.80
2023-04-28T20:43:22.564Z,11.80
2023-04-28T20:45:50.651Z,11.80
2023-04-28T20:48:17.395Z,11.80
2023-04-28T20:50:44.107Z,11.80
2023-04-28T20:53:11.120Z,11.80
2023-04-28T20:55:37.943Z,11.80
2023-04-28T20:58:04.706Z,11.80
2023-04-28T21:00:31.465Z,11.80
2023-04-28T21:02:59.895Z,11.80
2023-04-28T21:05:26.731Z,11.80
2023-04-28T21:07:53.430Z,11.80
2023-04-28T21:10:20.125Z,11.80
2023-04-28T21:12:46.896Z,11.70
2023-04-28T21:15:13.732Z,11.70
2023-04-28T21:17:40.513Z,11.70
2023-04-28T21:20:09.710Z,11.70
2023-04-28T21:22:36.551Z,11.70
2023-04-28T21:25:03.437Z,11.70
2023-04-28T21:27:30.215Z,11.70
2023-04-28T21:29:56.899Z,11.60
2023-04-28T21:32:23.785Z,11.70
2023-04-28T21:34:50.629Z,11.60
2023-04-28T21:37:18.741Z,11.60
2023-04-28T21:39:45.990Z,11.60
2023-04-28T21:42:12.795Z,11.60
2023-04-28T21:44:39.524Z,11.60
2023-04-28T21:47:06.283Z,11.60
2023-04-28T21:49:32.986Z,11.60
2023-04-28T21:51:59.694Z,11.50
2023-04-28T21:54:27.791Z,11.60
2023-04-28T21:56:54.495Z,11.60
2023-04-28T21:59:21.255Z,11.60
2023-04-28T22:01:48.121Z,11.60
2023-04-28T22:04:15.042Z,11.60
2023-04-28T22:06:42.085Z,11.50
2023-04-28T22:09:08.843Z,11.60
2023-04-28T22:11:36.981Z,11.60
2023-04-28T22:14:03.898Z,11.60
2023-04-28T22:16:30.848Z,11.60
2023-04-28T22:18:57.610Z,11.50
2023-04-28T22:21:24.359Z,11.60
2023-04-28T22:23:51.089Z,11.60
2023-04-28T22:26:17.834Z,11.60
2023-04-28T22:28:45.889Z,11.60
2023-04-28T22:31:12.640Z,11.60
2023-04-28T22:33:39.390Z,11.60
2023-04-28T22:36:06.987Z,11.60
2023-04-28T22:38:33.713Z,11.60
2023-04-28T22:41:00.423Z,11.60
2023-04-28T22:43:27.118Z,11.60
2023-04-28T22:45:57.281Z,11.60
2023-04-28T22:48:24.005Z,11.60
2023-04-28T22:50:50.712Z,11.60
2023-04-28T22:53:17.438Z,11.60
2023-04-28T22:55:44.132Z,11.60
2023-04-28T22:58:10.874Z,11.70
2023-04-28T23:00:37.573Z,11.70
2023-04-28T23:03:05.728Z,11.60
2023-04-28T23:05:32.519Z,11.60
2023-04-28T23:07:59.203Z,11.60
2023-04-28T23:10:25.992Z,11.60
2023-04-28T23:12:52.682Z,11.60
2023-04-28T23:15:19.549Z,11.60
2023-04-28T23:17:46.306Z,11.60
2023-04-28T23:20:14.656Z,11.60
2023-04-28T23:22:41.369Z,11.60
2023-04-28T23:25:08.916Z,11.60
2023-04-28T23:27:35.824Z,11.60
2023-04-28T23:30:02.754Z,11.60
2023-04-28T23:32:29.490Z,11.60
2023-04-28T23:34:56.304Z,11.60
2023-04-28T23:37:24.455Z,11.60
2023-04-28T23:39:51.404Z,11.60
2023-04-28T23:42:18.285Z,11.60
2023-04-28T23:44:44.994Z,11.60
2023-04-28T23:47:11.730Z,11.60
2023-04-28T23:49:38.452Z,11.60
2023-04-28T23:52:05.489Z,11.60
2023-04-28T23:54:33.587Z,11.60
2023-04-28T23:57:00.308Z,11.60
2023-04-28T23:59:27.108Z,11.60
